sensor_id;sensor_type;location;lat;lon;timestamp;temperature;humidity
10057;DHT22;5068;51.286;7.518;2022-09-03T00:00:04;12.10;49.50
10057;DHT22;5068;51.286;7.518;2022-09-03T00:01:45;12.00;49.50
10057;DHT22;5068;51.286;7.518;2022-09-03T00:03:26;12.00;49.40
10057;DHT22;5068;51.286;7.518;2022-09-03T00:05:07;12.00;49.50
10057;DHT22;5068;51.286;7.518;2022-09-03T00:06:49;12.00;49.50
10057;DHT22;5068;51.286;7.518;2022-09-03T00:08:33;12.00;49.70
10057;DHT22;5068;51.286;7.518;2022-09-03T00:10:15;12.00;49.90
10057;DHT22;5068;51.286;7.518;2022-09-03T00:12:01;12.00;49.90
10057;DHT22;5068;51.286;7.518;2022-09-03T00:13:44;12.00;50.00
10057;DHT22;5068;51.286;7.518;2022-09-03T00:15:23;12.00;49.90
10057;DHT22;5068;51.286;7.518;2022-09-03T00:16:59;11.90;49.80
10057;DHT22;5068;51.286;7.518;2022-09-03T00:18:43;11.90;50.00
10057;DHT22;5068;51.286;7.518;2022-09-03T00:20:26;11.90;50.20
10057;DHT22;5068;51.286;7.518;2022-09-03T00:22:08;11.90;50.20
10057;DHT22;5068;51.286;7.518;2022-09-03T00:23:47;11.90;50.20
10057;DHT22;5068;51.286;7.518;2022-09-03T00:25:25;11.90;50.30
10057;DHT22;5068;51.286;7.518;2022-09-03T00:27:13;11.90;50.40
10057;DHT22;5068;51.286;7.518;2022-09-03T00:28:55;11.90;50.50
10057;DHT22;5068;51.286;7.518;2022-09-03T00:30:31;11.90;50.40
10057;DHT22;5068;51.286;7.518;2022-09-03T00:32:12;11.80;50.40
10057;DHT22;5068;51.286;7.518;2022-09-03T00:33:53;11.80;50.60
10057;DHT22;5068;51.286;7.518;2022-09-03T00:35:33;11.80;50.60
10057;DHT22;5068;51.286;7.518;2022-09-03T00:37:12;11.80;50.60
10057;DHT22;5068;51.286;7.518;2022-09-03T00:38:47;11.80;50.70
10057;DHT22;5068;51.286;7.518;2022-09-03T00:40:34;11.80;50.60
10057;DHT22;5068;51.286;7.518;2022-09-03T00:42:29;11.80;50.90
10057;DHT22;5068;51.286;7.518;2022-09-03T00:46:20;11.80;51.00
10057;DHT22;5068;51.286;7.518;2022-09-03T00:48:05;11.70;50.60
10057;DHT22;5068;51.286;7.518;2022-09-03T00:49:56;11.70;50.80
10057;DHT22;5068;51.286;7.518;2022-09-03T00:51:42;11.70;50.90
10057;DHT22;5068;51.286;7.518;2022-09-03T00:53:29;11.60;51.00
10057;DHT22;5068;51.286;7.518;2022-09-03T00:55:14;11.60;51.00
10057;DHT22;5068;51.286;7.518;2022-09-03T00:57:05;11.60;51.10
10057;DHT22;5068;51.286;7.518;2022-09-03T00:59:02;11.60;51.20
10057;DHT22;5068;51.286;7.518;2022-09-03T01:00:49;11.60;51.30
10057;DHT22;5068;51.286;7.518;2022-09-03T01:02:41;11.60;51.10
10057;DHT22;5068;51.286;7.518;2022-09-03T01:04:34;11.60;51.30
10057;DHT22;5068;51.286;7.518;2022-09-03T01:06:26;11.60;51.50
10057;DHT22;5068;51.286;7.518;2022-09-03T01:08:24;11.50;51.30
10057;DHT22;5068;51.286;7.518;2022-09-03T01:10:15;11.50;51.60
10057;DHT22;5068;51.286;7.518;2022-09-03T01:12:03;11.50;51.50
10057;DHT22;5068;51.286;7.518;2022-09-03T01:13:55;11.50;51.60
10057;DHT22;5068;51.286;7.518;2022-09-03T01:15:44;11.50;51.60
10057;DHT22;5068;51.286;7.518;2022-09-03T01:17:40;11.50;51.70
10057;DHT22;5068;51.286;7.518;2022-09-03T01:22:00;11.40;51.80
10057;DHT22;5068;51.286;7.518;2022-09-03T01:24:13;11.40;51.70
10057;DHT22;5068;51.286;7.518;2022-09-03T01:26:10;11.40;52.00
10057;DHT22;5068;51.286;7.518;2022-09-03T01:28:05;11.40;51.90
10057;DHT22;5068;51.286;7.518;2022-09-03T01:29:58;11.40;51.90
10057;DHT22;5068;51.286;7.518;2022-09-03T01:31:42;11.40;51.80
10057;DHT22;5068;51.286;7.518;2022-09-03T01:33:26;11.30;51.80
10057;DHT22;5068;51.286;7.518;2022-09-03T01:35:12;11.30;51.80
10057;DHT22;5068;51.286;7.518;2022-09-03T01:36:58;11.30;52.10
10057;DHT22;5068;51.286;7.518;2022-09-03T01:38:44;11.30;52.10
10057;DHT22;5068;51.286;7.518;2022-09-03T01:40:29;11.30;52.00
10057;DHT22;5068;51.286;7.518;2022-09-03T01:42:21;11.30;52.20
10057;DHT22;5068;51.286;7.518;2022-09-03T01:44:06;11.30;52.30
10057;DHT22;5068;51.286;7.518;2022-09-03T01:45:52;11.20;52.20
10057;DHT22;5068;51.286;7.518;2022-09-03T01:47:41;11.30;53.00
10057;DHT22;5068;51.286;7.518;2022-09-03T01:49:24;11.20;52.30
10057;DHT22;5068;51.286;7.518;2022-09-03T01:51:14;11.20;52.20
10057;DHT22;5068;51.286;7.518;2022-09-03T01:52:54;11.20;52.30
10057;DHT22;5068;51.286;7.518;2022-09-03T01:54:57;11.20;52.40
10057;DHT22;5068;51.286;7.518;2022-09-03T01:56:49;11.20;52.60
10057;DHT22;5068;51.286;7.518;2022-09-03T01:59:08;11.20;52.50
10057;DHT22;5068;51.286;7.518;2022-09-03T02:00:56;11.20;52.50
10057;DHT22;5068;51.286;7.518;2022-09-03T02:02:36;11.10;52.40
10057;DHT22;5068;51.286;7.518;2022-09-03T02:04:18;11.20;52.50
10057;DHT22;5068;51.286;7.518;2022-09-03T02:05:56;11.10;52.70
10057;DHT22;5068;51.286;7.518;2022-09-03T02:07:31;11.10;52.50
10057;DHT22;5068;51.286;7.518;2022-09-03T02:09:05;11.10;52.70
10057;DHT22;5068;51.286;7.518;2022-09-03T02:10:40;11.10;52.70
10057;DHT22;5068;51.286;7.518;2022-09-03T02:12:17;11.10;52.90
10057;DHT22;5068;51.286;7.518;2022-09-03T02:13:55;11.00;52.70
10057;DHT22;5068;51.286;7.518;2022-09-03T02:15:32;11.10;53.00
10057;DHT22;5068;51.286;7.518;2022-09-03T02:17:09;11.00;53.00
10057;DHT22;5068;51.286;7.518;2022-09-03T02:18:45;11.10;53.00
10057;DHT22;5068;51.286;7.518;2022-09-03T02:20:26;11.10;53.00
10057;DHT22;5068;51.286;7.518;2022-09-03T02:22:00;11.00;52.90
10057;DHT22;5068;51.286;7.518;2022-09-03T02:23:34;11.00;52.90
10057;DHT22;5068;51.286;7.518;2022-09-03T02:25:08;11.00;52.90
10057;DHT22;5068;51.286;7.518;2022-09-03T02:26:42;11.00;53.00
10057;DHT22;5068;51.286;7.518;2022-09-03T02:28:15;11.00;53.10
10057;DHT22;5068;51.286;7.518;2022-09-03T02:29:49;11.00;53.20
10057;DHT22;5068;51.286;7.518;2022-09-03T02:31:24;11.10;53.30
10057;DHT22;5068;51.286;7.518;2022-09-03T02:32:59;11.00;53.20
10057;DHT22;5068;51.286;7.518;2022-09-03T02:34:32;10.90;53.20
10057;DHT22;5068;51.286;7.518;2022-09-03T02:36:08;11.00;53.20
10057;DHT22;5068;51.286;7.518;2022-09-03T02:37:43;10.90;53.20
10057;DHT22;5068;51.286;7.518;2022-09-03T02:39:17;11.00;53.30
10057;DHT22;5068;51.286;7.518;2022-09-03T02:40:51;10.90;53.20
10057;DHT22;5068;51.286;7.518;2022-09-03T02:42:25;10.90;53.20
10057;DHT22;5068;51.286;7.518;2022-09-03T02:44:01;10.90;53.20
10057;DHT22;5068;51.286;7.518;2022-09-03T02:45:44;10.90;53.20
10057;DHT22;5068;51.286;7.518;2022-09-03T02:47:22;10.90;53.20
10057;DHT22;5068;51.286;7.518;2022-09-03T02:49:01;10.90;53.20
10057;DHT22;5068;51.286;7.518;2022-09-03T02:50:39;10.90;53.20
10057;DHT22;5068;51.286;7.518;2022-09-03T02:52:13;10.90;53.30
10057;DHT22;5068;51.286;7.518;2022-09-03T02:53:47;10.90;53.20
10057;DHT22;5068;51.286;7.518;2022-09-03T02:55:21;10.90;53.20
10057;DHT22;5068;51.286;7.518;2022-09-03T02:56:55;10.80;53.20
10057;DHT22;5068;51.286;7.518;2022-09-03T02:58:29;10.80;53.10
10057;DHT22;5068;51.286;7.518;2022-09-03T03:02:14;10.80;53.40
10057;DHT22;5068;51.286;7.518;2022-09-03T03:03:49;10.80;53.10
10057;DHT22;5068;51.286;7.518;2022-09-03T03:05:25;10.80;53.10
10057;DHT22;5068;51.286;7.518;2022-09-03T03:07:07;10.80;53.10
10057;DHT22;5068;51.286;7.518;2022-09-03T03:08:41;10.80;53.10
10057;DHT22;5068;51.286;7.518;2022-09-03T03:10:15;10.80;53.10
10057;DHT22;5068;51.286;7.518;2022-09-03T03:11:48;10.70;53.10
10057;DHT22;5068;51.286;7.518;2022-09-03T03:13:22;10.70;53.20
10057;DHT22;5068;51.286;7.518;2022-09-03T03:14:55;10.70;53.20
10057;DHT22;5068;51.286;7.518;2022-09-03T03:16:29;10.70;53.20
10057;DHT22;5068;51.286;7.518;2022-09-03T03:18:03;10.70;53.20
10057;DHT22;5068;51.286;7.518;2022-09-03T03:19:38;10.70;53.80
10057;DHT22;5068;51.286;7.518;2022-09-03T03:21:15;10.70;53.40
10057;DHT22;5068;51.286;7.518;2022-09-03T03:22:50;10.60;53.30
10057;DHT22;5068;51.286;7.518;2022-09-03T03:24:22;10.60;53.40
10057;DHT22;5068;51.286;7.518;2022-09-03T03:26:00;10.60;53.40
10057;DHT22;5068;51.286;7.518;2022-09-03T03:27:34;10.60;53.60
10057;DHT22;5068;51.286;7.518;2022-09-03T03:29:14;10.60;53.50
10057;DHT22;5068;51.286;7.518;2022-09-03T03:30:49;10.60;53.60
10057;DHT22;5068;51.286;7.518;2022-09-03T03:32:23;10.60;53.60
10057;DHT22;5068;51.286;7.518;2022-09-03T03:33:58;10.60;53.70
10057;DHT22;5068;51.286;7.518;2022-09-03T03:35:34;10.50;53.80
10057;DHT22;5068;51.286;7.518;2022-09-03T03:37:09;10.60;53.80
10057;DHT22;5068;51.286;7.518;2022-09-03T03:38:43;10.50;53.70
10057;DHT22;5068;51.286;7.518;2022-09-03T03:40:17;10.50;53.70
10057;DHT22;5068;51.286;7.518;2022-09-03T03:41:51;10.50;53.70
10057;DHT22;5068;51.286;7.518;2022-09-03T03:43:24;10.50;53.80
10057;DHT22;5068;51.286;7.518;2022-09-03T03:44:58;10.50;53.80
10057;DHT22;5068;51.286;7.518;2022-09-03T03:46:35;10.50;53.70
10057;DHT22;5068;51.286;7.518;2022-09-03T03:48:10;10.50;53.80
10057;DHT22;5068;51.286;7.518;2022-09-03T03:49:43;10.40;53.70
10057;DHT22;5068;51.286;7.518;2022-09-03T03:51:18;10.40;53.70
10057;DHT22;5068;51.286;7.518;2022-09-03T03:52:52;10.40;53.80
10057;DHT22;5068;51.286;7.518;2022-09-03T03:54:25;10.40;53.80
10057;DHT22;5068;51.286;7.518;2022-09-03T03:56:00;10.40;53.80
10057;DHT22;5068;51.286;7.518;2022-09-03T03:57:34;10.40;53.90
10057;DHT22;5068;51.286;7.518;2022-09-03T03:59:08;10.40;54.00
10057;DHT22;5068;51.286;7.518;2022-09-03T04:00:42;10.30;53.90
10057;DHT22;5068;51.286;7.518;2022-09-03T04:02:17;10.30;53.90
10057;DHT22;5068;51.286;7.518;2022-09-03T04:03:51;10.30;54.00
10057;DHT22;5068;51.286;7.518;2022-09-03T04:05:27;10.30;54.00
10057;DHT22;5068;51.286;7.518;2022-09-03T04:07:06;10.30;54.00
10057;DHT22;5068;51.286;7.518;2022-09-03T04:08:42;10.30;54.10
10057;DHT22;5068;51.286;7.518;2022-09-03T04:10:17;10.30;54.10
10057;DHT22;5068;51.286;7.518;2022-09-03T04:11:51;10.30;54.10
10057;DHT22;5068;51.286;7.518;2022-09-03T04:13:28;10.20;54.00
10057;DHT22;5068;51.286;7.518;2022-09-03T04:15:02;10.20;54.20
10057;DHT22;5068;51.286;7.518;2022-09-03T04:16:37;10.20;54.10
10057;DHT22;5068;51.286;7.518;2022-09-03T04:18:11;10.20;54.10
10057;DHT22;5068;51.286;7.518;2022-09-03T04:19:45;10.20;54.10
10057;DHT22;5068;51.286;7.518;2022-09-03T04:21:20;10.20;54.10
10057;DHT22;5068;51.286;7.518;2022-09-03T04:23:02;10.20;54.20
10057;DHT22;5068;51.286;7.518;2022-09-03T04:24:36;10.20;54.20
10057;DHT22;5068;51.286;7.518;2022-09-03T04:26:11;10.10;54.00
10057;DHT22;5068;51.286;7.518;2022-09-03T04:27:46;10.20;54.20
10057;DHT22;5068;51.286;7.518;2022-09-03T04:29:20;10.20;54.20
10057;DHT22;5068;51.286;7.518;2022-09-03T04:30:54;10.10;54.20
10057;DHT22;5068;51.286;7.518;2022-09-03T04:32:32;10.10;54.20
10057;DHT22;5068;51.286;7.518;2022-09-03T04:34:23;10.10;54.20
10057;DHT22;5068;51.286;7.518;2022-09-03T04:36:07;10.10;54.20
10057;DHT22;5068;51.286;7.518;2022-09-03T04:37:42;10.10;54.50
10057;DHT22;5068;51.286;7.518;2022-09-03T04:39:16;10.10;54.30
10057;DHT22;5068;51.286;7.518;2022-09-03T04:40:51;10.00;54.40
10057;DHT22;5068;51.286;7.518;2022-09-03T04:42:24;10.00;54.40
10057;DHT22;5068;51.286;7.518;2022-09-03T04:43:58;10.00;54.50
10057;DHT22;5068;51.286;7.518;2022-09-03T04:45:32;10.00;54.50
10057;DHT22;5068;51.286;7.518;2022-09-03T04:47:04;10.00;54.50
10057;DHT22;5068;51.286;7.518;2022-09-03T04:48:38;10.00;54.50
10057;DHT22;5068;51.286;7.518;2022-09-03T04:50:12;10.00;54.50
10057;DHT22;5068;51.286;7.518;2022-09-03T04:51:45;10.00;54.60
10057;DHT22;5068;51.286;7.518;2022-09-03T04:53:19;10.00;54.60
10057;DHT22;5068;51.286;7.518;2022-09-03T04:54:55;10.00;54.70
10057;DHT22;5068;51.286;7.518;2022-09-03T04:56:30;10.00;54.80
10057;DHT22;5068;51.286;7.518;2022-09-03T04:58:05;10.00;54.90
10057;DHT22;5068;51.286;7.518;2022-09-03T04:59:39;10.00;54.90
10057;DHT22;5068;51.286;7.518;2022-09-03T05:01:16;10.00;54.90
10057;DHT22;5068;51.286;7.518;2022-09-03T05:02:51;10.00;54.90
10057;DHT22;5068;51.286;7.518;2022-09-03T05:04:25;10.00;54.90
10057;DHT22;5068;51.286;7.518;2022-09-03T05:05:58;9.90;54.80
10057;DHT22;5068;51.286;7.518;2022-09-03T05:07:32;9.90;54.80
10057;DHT22;5068;51.286;7.518;2022-09-03T05:09:09;9.90;54.80
10057;DHT22;5068;51.286;7.518;2022-09-03T05:10:44;9.90;54.80
10057;DHT22;5068;51.286;7.518;2022-09-03T05:12:18;9.90;54.80
10057;DHT22;5068;51.286;7.518;2022-09-03T05:13:55;9.90;54.80
10057;DHT22;5068;51.286;7.518;2022-09-03T05:15:31;9.90;54.90
10057;DHT22;5068;51.286;7.518;2022-09-03T05:17:05;10.00;54.90
10057;DHT22;5068;51.286;7.518;2022-09-03T05:18:39;9.90;54.90
10057;DHT22;5068;51.286;7.518;2022-09-03T05:20:13;9.90;55.00
10057;DHT22;5068;51.286;7.518;2022-09-03T05:21:46;9.90;55.00
10057;DHT22;5068;51.286;7.518;2022-09-03T05:23:20;10.00;55.10
10057;DHT22;5068;51.286;7.518;2022-09-03T05:24:53;9.90;55.10
10057;DHT22;5068;51.286;7.518;2022-09-03T05:26:30;9.90;55.00
10057;DHT22;5068;51.286;7.518;2022-09-03T05:28:05;10.00;55.20
10057;DHT22;5068;51.286;7.518;2022-09-03T05:29:39;9.90;55.00
10057;DHT22;5068;51.286;7.518;2022-09-03T05:31:14;9.90;55.10
10057;DHT22;5068;51.286;7.518;2022-09-03T05:32:49;10.00;55.20
10057;DHT22;5068;51.286;7.518;2022-09-03T05:34:23;9.90;55.10
10057;DHT22;5068;51.286;7.518;2022-09-03T05:36:00;9.90;55.20
10057;DHT22;5068;51.286;7.518;2022-09-03T05:37:34;9.90;56.10
10057;DHT22;5068;51.286;7.518;2022-09-03T05:39:08;9.90;55.40
10057;DHT22;5068;51.286;7.518;2022-09-03T05:40:42;9.90;55.50
10057;DHT22;5068;51.286;7.518;2022-09-03T05:42:17;9.90;55.50
10057;DHT22;5068;51.286;7.518;2022-09-03T05:43:52;9.90;55.50
10057;DHT22;5068;51.286;7.518;2022-09-03T05:45:27;9.90;55.50
10057;DHT22;5068;51.286;7.518;2022-09-03T05:47:03;10.00;55.60
10057;DHT22;5068;51.286;7.518;2022-09-03T05:48:38;10.00;55.70
10057;DHT22;5068;51.286;7.518;2022-09-03T05:50:11;10.00;55.70
10057;DHT22;5068;51.286;7.518;2022-09-03T05:51:44;10.00;55.70
10057;DHT22;5068;51.286;7.518;2022-09-03T05:53:18;10.00;55.70
10057;DHT22;5068;51.286;7.518;2022-09-03T05:54:51;10.00;55.70
10057;DHT22;5068;51.286;7.518;2022-09-03T05:56:26;10.00;55.70
10057;DHT22;5068;51.286;7.518;2022-09-03T05:58:02;10.00;55.90
10057;DHT22;5068;51.286;7.518;2022-09-03T05:59:35;10.00;56.00
10057;DHT22;5068;51.286;7.518;2022-09-03T06:01:10;10.00;55.90
10057;DHT22;5068;51.286;7.518;2022-09-03T06:02:49;10.00;56.00
10057;DHT22;5068;51.286;7.518;2022-09-03T06:04:24;10.00;56.10
10057;DHT22;5068;51.286;7.518;2022-09-03T06:05:58;10.00;56.10
10057;DHT22;5068;51.286;7.518;2022-09-03T06:07:32;10.00;56.20
10057;DHT22;5068;51.286;7.518;2022-09-03T06:09:07;10.10;56.30
10057;DHT22;5068;51.286;7.518;2022-09-03T06:10:42;10.10;56.30
10057;DHT22;5068;51.286;7.518;2022-09-03T06:12:16;10.10;56.30
10057;DHT22;5068;51.286;7.518;2022-09-03T06:13:51;10.20;56.50
10057;DHT22;5068;51.286;7.518;2022-09-03T06:15:25;10.10;56.50
10057;DHT22;5068;51.286;7.518;2022-09-03T06:16:59;10.10;56.60
10057;DHT22;5068;51.286;7.518;2022-09-03T06:18:32;10.10;56.70
10057;DHT22;5068;51.286;7.518;2022-09-03T06:20:06;10.20;56.80
10057;DHT22;5068;51.286;7.518;2022-09-03T06:21:42;10.20;56.90
10057;DHT22;5068;51.286;7.518;2022-09-03T06:23:16;10.20;56.90
10057;DHT22;5068;51.286;7.518;2022-09-03T06:24:51;10.20;56.90
10057;DHT22;5068;51.286;7.518;2022-09-03T06:26:25;10.30;57.00
10057;DHT22;5068;51.286;7.518;2022-09-03T06:28:01;10.30;57.00
10057;DHT22;5068;51.286;7.518;2022-09-03T06:29:36;10.40;57.10
10057;DHT22;5068;51.286;7.518;2022-09-03T06:31:11;10.40;57.10
10057;DHT22;5068;51.286;7.518;2022-09-03T06:32:47;10.40;57.10
10057;DHT22;5068;51.286;7.518;2022-09-03T06:34:23;10.50;57.20
10057;DHT22;5068;51.286;7.518;2022-09-03T06:35:56;10.50;57.10
10057;DHT22;5068;51.286;7.518;2022-09-03T06:37:30;10.60;57.20
10057;DHT22;5068;51.286;7.518;2022-09-03T06:39:03;10.60;57.20
10057;DHT22;5068;51.286;7.518;2022-09-03T06:40:37;10.70;57.30
10057;DHT22;5068;51.286;7.518;2022-09-03T06:42:10;10.70;57.20
10057;DHT22;5068;51.286;7.518;2022-09-03T06:43:47;10.70;57.20
10057;DHT22;5068;51.286;7.518;2022-09-03T06:45:23;10.80;57.30
10057;DHT22;5068;51.286;7.518;2022-09-03T06:46:57;10.80;57.40
10057;DHT22;5068;51.286;7.518;2022-09-03T06:48:33;10.90;57.50
10057;DHT22;5068;51.286;7.518;2022-09-03T06:50:08;10.90;57.60
10057;DHT22;5068;51.286;7.518;2022-09-03T06:51:42;11.00;57.60
10057;DHT22;5068;51.286;7.518;2022-09-03T06:53:17;11.00;58.30
10057;DHT22;5068;51.286;7.518;2022-09-03T06:54:50;11.10;57.80
10057;DHT22;5068;51.286;7.518;2022-09-03T06:56:26;11.20;57.80
10057;DHT22;5068;51.286;7.518;2022-09-03T06:57:59;11.20;57.90
10057;DHT22;5068;51.286;7.518;2022-09-03T06:59:33;11.30;58.00
10057;DHT22;5068;51.286;7.518;2022-09-03T07:01:10;11.40;58.10
10057;DHT22;5068;51.286;7.518;2022-09-03T07:02:45;11.40;58.10
10057;DHT22;5068;51.286;7.518;2022-09-03T07:04:19;11.50;58.20
10057;DHT22;5068;51.286;7.518;2022-09-03T07:05:59;11.60;58.30
10057;DHT22;5068;51.286;7.518;2022-09-03T07:07:34;11.70;58.70
10057;DHT22;5068;51.286;7.518;2022-09-03T07:09:10;11.80;58.60
10057;DHT22;5068;51.286;7.518;2022-09-03T07:10:46;11.80;58.70
10057;DHT22;5068;51.286;7.518;2022-09-03T07:12:20;11.90;58.70
10057;DHT22;5068;51.286;7.518;2022-09-03T07:13:53;12.00;58.80
10057;DHT22;5068;51.286;7.518;2022-09-03T07:15:28;12.10;59.00
10057;DHT22;5068;51.286;7.518;2022-09-03T07:17:03;12.20;58.80
10057;DHT22;5068;51.286;7.518;2022-09-03T07:18:38;12.30;59.00
10057;DHT22;5068;51.286;7.518;2022-09-03T07:20:12;12.40;59.00
10057;DHT22;5068;51.286;7.518;2022-09-03T07:21:46;12.50;59.10
10057;DHT22;5068;51.286;7.518;2022-09-03T07:23:21;12.60;59.20
10057;DHT22;5068;51.286;7.518;2022-09-03T07:24:54;12.70;59.10
10057;DHT22;5068;51.286;7.518;2022-09-03T07:26:30;12.80;59.00
10057;DHT22;5068;51.286;7.518;2022-09-03T07:28:05;12.90;59.10
10057;DHT22;5068;51.286;7.518;2022-09-03T07:29:39;13.00;59.00
10057;DHT22;5068;51.286;7.518;2022-09-03T07:31:14;13.10;59.00
10057;DHT22;5068;51.286;7.518;2022-09-03T07:32:52;13.20;59.20
10057;DHT22;5068;51.286;7.518;2022-09-03T07:34:27;13.30;58.40
10057;DHT22;5068;51.286;7.518;2022-09-03T07:36:02;13.40;58.10
10057;DHT22;5068;51.286;7.518;2022-09-03T07:37:40;13.50;57.30
10057;DHT22;5068;51.286;7.518;2022-09-03T07:39:15;13.60;56.60
10057;DHT22;5068;51.286;7.518;2022-09-03T07:40:56;13.70;56.60
10057;DHT22;5068;51.286;7.518;2022-09-03T07:42:31;13.80;57.00
10057;DHT22;5068;51.286;7.518;2022-09-03T07:44:09;14.00;56.90
10057;DHT22;5068;51.286;7.518;2022-09-03T07:45:49;14.10;57.20
10057;DHT22;5068;51.286;7.518;2022-09-03T07:47:23;14.20;55.80
10057;DHT22;5068;51.286;7.518;2022-09-03T07:49:00;14.40;55.60
10057;DHT22;5068;51.286;7.518;2022-09-03T07:50:34;14.50;55.00
10057;DHT22;5068;51.286;7.518;2022-09-03T07:52:10;14.70;54.70
10057;DHT22;5068;51.286;7.518;2022-09-03T07:53:51;14.90;54.40
10057;DHT22;5068;51.286;7.518;2022-09-03T07:55:26;15.00;53.70
10057;DHT22;5068;51.286;7.518;2022-09-03T07:57:00;15.20;53.90
10057;DHT22;5068;51.286;7.518;2022-09-03T07:58:35;15.40;53.60
10057;DHT22;5068;51.286;7.518;2022-09-03T08:00:10;15.50;53.20
10057;DHT22;5068;51.286;7.518;2022-09-03T08:01:45;15.70;52.70
10057;DHT22;5068;51.286;7.518;2022-09-03T08:03:19;15.90;52.10
10057;DHT22;5068;51.286;7.518;2022-09-03T08:04:54;16.00;51.70
10057;DHT22;5068;51.286;7.518;2022-09-03T08:06:29;16.20;51.00
10057;DHT22;5068;51.286;7.518;2022-09-03T08:08:04;16.30;50.70
10057;DHT22;5068;51.286;7.518;2022-09-03T08:09:46;16.50;50.30
10057;DHT22;5068;51.286;7.518;2022-09-03T08:11:20;16.70;49.80
10057;DHT22;5068;51.286;7.518;2022-09-03T08:12:53;16.80;49.50
10057;DHT22;5068;51.286;7.518;2022-09-03T08:14:26;16.90;49.10
10057;DHT22;5068;51.286;7.518;2022-09-03T08:16:02;17.00;48.90
10057;DHT22;5068;51.286;7.518;2022-09-03T08:17:37;17.20;48.40
10057;DHT22;5068;51.286;7.518;2022-09-03T08:19:13;17.40;48.20
10057;DHT22;5068;51.286;7.518;2022-09-03T08:20:50;17.50;47.70
10057;DHT22;5068;51.286;7.518;2022-09-03T08:22:23;17.60;47.40
10057;DHT22;5068;51.286;7.518;2022-09-03T08:23:58;17.70;47.30
10057;DHT22;5068;51.286;7.518;2022-09-03T08:25:33;17.90;46.90
10057;DHT22;5068;51.286;7.518;2022-09-03T08:27:07;18.00;46.60
10057;DHT22;5068;51.286;7.518;2022-09-03T08:28:42;18.10;46.60
10057;DHT22;5068;51.286;7.518;2022-09-03T08:30:16;18.20;46.30
10057;DHT22;5068;51.286;7.518;2022-09-03T08:31:50;18.40;46.00
10057;DHT22;5068;51.286;7.518;2022-09-03T08:33:26;18.50;45.60
10057;DHT22;5068;51.286;7.518;2022-09-03T08:35:14;18.60;45.20
10057;DHT22;5068;51.286;7.518;2022-09-03T08:36:49;18.70;45.10
10057;DHT22;5068;51.286;7.518;2022-09-03T08:38:23;18.80;44.80
10057;DHT22;5068;51.286;7.518;2022-09-03T08:39:57;19.00;44.60
10057;DHT22;5068;51.286;7.518;2022-09-03T08:41:38;19.00;44.40
10057;DHT22;5068;51.286;7.518;2022-09-03T08:44:19;19.10;43.80
10057;DHT22;5068;51.286;7.518;2022-09-03T08:45:57;19.30;43.30
10057;DHT22;5068;51.286;7.518;2022-09-03T08:47:34;19.40;43.90
10057;DHT22;5068;51.286;7.518;2022-09-03T08:49:12;19.40;43.40
10057;DHT22;5068;51.286;7.518;2022-09-03T08:50:51;19.50;43.20
10057;DHT22;5068;51.286;7.518;2022-09-03T08:52:37;19.60;43.20
10057;DHT22;5068;51.286;7.518;2022-09-03T08:54:17;19.70;42.70
10057;DHT22;5068;51.286;7.518;2022-09-03T08:56:00;19.70;42.90
10057;DHT22;5068;51.286;7.518;2022-09-03T08:57:41;19.70;42.60
10057;DHT22;5068;51.286;7.518;2022-09-03T08:59:18;19.80;42.20
10057;DHT22;5068;51.286;7.518;2022-09-03T09:01:05;19.80;42.20
10057;DHT22;5068;51.286;7.518;2022-09-03T09:03:02;19.90;42.70
10057;DHT22;5068;51.286;7.518;2022-09-03T09:04:56;20.00;42.00
10057;DHT22;5068;51.286;7.518;2022-09-03T09:06:45;20.10;42.00
10057;DHT22;5068;51.286;7.518;2022-09-03T09:08:34;20.20;42.20
10057;DHT22;5068;51.286;7.518;2022-09-03T09:10:20;20.20;42.30
10057;DHT22;5068;51.286;7.518;2022-09-03T09:12:12;20.30;42.30
10057;DHT22;5068;51.286;7.518;2022-09-03T09:13:58;20.40;42.00
10057;DHT22;5068;51.286;7.518;2022-09-03T09:15:42;20.50;42.10
10057;DHT22;5068;51.286;7.518;2022-09-03T09:17:40;20.60;42.20
10057;DHT22;5068;51.286;7.518;2022-09-03T09:19:36;20.70;41.10
10057;DHT22;5068;51.286;7.518;2022-09-03T09:21:17;20.90;41.00
10057;DHT22;5068;51.286;7.518;2022-09-03T09:23:02;20.90;41.00
10057;DHT22;5068;51.286;7.518;2022-09-03T09:24:41;21.10;40.70
10057;DHT22;5068;51.286;7.518;2022-09-03T09:26:19;21.10;40.70
10057;DHT22;5068;51.286;7.518;2022-09-03T09:27:59;21.20;40.70
10057;DHT22;5068;51.286;7.518;2022-09-03T09:29:36;21.30;40.50
10057;DHT22;5068;51.286;7.518;2022-09-03T09:31:11;21.30;40.70
10057;DHT22;5068;51.286;7.518;2022-09-03T09:32:49;21.50;40.50
10057;DHT22;5068;51.286;7.518;2022-09-03T09:34:23;21.50;40.60
10057;DHT22;5068;51.286;7.518;2022-09-03T09:35:58;21.70;40.20
10057;DHT22;5068;51.286;7.518;2022-09-03T09:37:44;21.80;39.50
10057;DHT22;5068;51.286;7.518;2022-09-03T09:39:20;21.80;39.40
10057;DHT22;5068;51.286;7.518;2022-09-03T09:41:06;21.90;39.40
10057;DHT22;5068;51.286;7.518;2022-09-03T09:42:41;22.00;39.40
10057;DHT22;5068;51.286;7.518;2022-09-03T09:44:19;22.10;39.30
10057;DHT22;5068;51.286;7.518;2022-09-03T09:45:54;22.10;38.60
10057;DHT22;5068;51.286;7.518;2022-09-03T09:47:40;22.20;39.20
10057;DHT22;5068;51.286;7.518;2022-09-03T09:49:30;22.40;38.80
10057;DHT22;5068;51.286;7.518;2022-09-03T09:51:09;22.40;38.00
10057;DHT22;5068;51.286;7.518;2022-09-03T09:52:45;22.50;38.70
10057;DHT22;5068;51.286;7.518;2022-09-03T09:54:25;22.60;38.70
10057;DHT22;5068;51.286;7.518;2022-09-03T09:56:00;22.70;38.10
10057;DHT22;5068;51.286;7.518;2022-09-03T09:57:34;22.80;38.00
10057;DHT22;5068;51.286;7.518;2022-09-03T09:59:12;22.90;38.00
10057;DHT22;5068;51.286;7.518;2022-09-03T10:00:57;23.00;37.70
10057;DHT22;5068;51.286;7.518;2022-09-03T10:02:35;23.00;37.00
10057;DHT22;5068;51.286;7.518;2022-09-03T10:04:12;23.10;37.70
10057;DHT22;5068;51.286;7.518;2022-09-03T10:06:07;23.20;37.70
10057;DHT22;5068;51.286;7.518;2022-09-03T10:08:00;23.20;37.10
10057;DHT22;5068;51.286;7.518;2022-09-03T10:09:36;23.30;37.20
10057;DHT22;5068;51.286;7.518;2022-09-03T10:11:11;23.40;37.00
10057;DHT22;5068;51.286;7.518;2022-09-03T10:12:49;23.40;36.80
10057;DHT22;5068;51.286;7.518;2022-09-03T10:14:37;23.50;36.50
10057;DHT22;5068;51.286;7.518;2022-09-03T10:16:24;23.50;36.30
10057;DHT22;5068;51.286;7.518;2022-09-03T10:18:04;23.60;36.10
10057;DHT22;5068;51.286;7.518;2022-09-03T10:19:53;23.70;36.10
10057;DHT22;5068;51.286;7.518;2022-09-03T10:21:54;23.70;36.10
10057;DHT22;5068;51.286;7.518;2022-09-03T10:23:41;23.80;36.20
10057;DHT22;5068;51.286;7.518;2022-09-03T10:25:24;23.90;35.90
10057;DHT22;5068;51.286;7.518;2022-09-03T10:27:02;23.90;35.80
10057;DHT22;5068;51.286;7.518;2022-09-03T10:28:38;24.00;35.80
10057;DHT22;5068;51.286;7.518;2022-09-03T10:30:13;24.00;35.60
10057;DHT22;5068;51.286;7.518;2022-09-03T10:32:06;24.00;35.70
10057;DHT22;5068;51.286;7.518;2022-09-03T10:33:58;24.10;35.40
10057;DHT22;5068;51.286;7.518;2022-09-03T10:35:41;24.20;35.60
10057;DHT22;5068;51.286;7.518;2022-09-03T10:37:22;24.20;35.10
10057;DHT22;5068;51.286;7.518;2022-09-03T10:39:07;24.30;35.20
10057;DHT22;5068;51.286;7.518;2022-09-03T10:40:52;24.40;35.00